Dickinson Theodore Roosevelt Regional Airport
KDIK : now visible

Aeroporto :











RITROVATECI SU...

 
LOGIN :

Iscrizione | Disclaimer

   EN    FR    IT 

 









Sommario :    VFR   VFR Marginale   IFR   IFR Intensivo   IFR Molto Intensivo
Visibilità : 
Base nubi : 
>= 8 km
>= 3000ft
5 / 8 km
1000 / 3000 ft
1500m / 5 km
500 / 1000 ft
800 / 1500m
200 / 500 ft
< 800m
< 200 ft
Simboli :   Temporali  Nebbia  Neve Forte  Precipitazioni Forti  Vento > 20 kt







- Altitudine del aeroporto : 2592 ft


KDIK - Dickinson Theodore Roosevelt Regional

ULTIMO METAR :
  • 251056Z AUTO 19007KT 10SM CLR 16/15 A2972 RMK AO2 SLP044 T01610150

METARs OBSOLETI :
  • 250956Z AUTO 21004KT 10SM CLR 16/16 A2971 RMK AO2 SLP041 T01610156
  • 250856Z AUTO 19008KT 10SM CLR 17/16 A2971 RMK AO2 SLP041 T01670156 58013

TAF KDIK
Valido dal 25 a 06 ore il 26 a 06 ore UTC


250521Z 2506/2606 17012KT P6SM BKN120
FM251400 26006KT P6SM FEW080 SCT250
FM251800 27012KT P6SM VCSH FEW060 SCT200
FM260000 31014KT P6SM FEW070 FEW250
Nessun NOTAM noto per questo aeroporto.



MetMap, La meteo Aeronautica in un colpo d'occhio ! - Copyright ORBIFLY Dicembre 2007 - Disclaimer

ORBIFLY MET'MAP TEAM :

Programmazione e sviluppo : Alexandra Zaïnal
Concezione e sviluppo : Baudouin d'Aumeries
Co-Programmazione e sviluppo : Marc-Olivier Méhu
Supporto tecnico e logistico : Manuel Goepfert
Aiuto per la traduzione : Arnaldo La Scala

Contatto : metmap@orbifly.com




FONTI E CREDITI :

   NOAA       Earth
Advisory